sensor_id;sensor_type;location;lat;lon;timestamp;P1;durP1;ratioP1;P2;durP2;ratioP2
13989;SDS011;7069;52.528;13.316;2023-04-25T00:02:05;2.53;;;2.33;;
13989;SDS011;7069;52.528;13.316;2023-04-25T00:04:32;3.67;;;2.60;;
13989;SDS011;7069;52.528;13.316;2023-04-25T00:06:58;4.27;;;2.20;;
13989;SDS011;7069;52.528;13.316;2023-04-25T00:09:26;4.73;;;2.33;;
13989;SDS011;7069;52.528;13.316;2023-04-25T00:11:54;2.33;;;2.10;;
13989;SDS011;7069;52.528;13.316;2023-04-25T00:14:21;3.10;;;2.27;;
13989;SDS011;7069;52.528;13.316;2023-04-25T00:16:48;2.60;;;1.80;;
13989;SDS011;7069;52.528;13.316;2023-04-25T00:19:16;2.30;;;2.07;;
13989;SDS011;7069;52.528;13.316;2023-04-25T00:21:43;7.30;;;2.63;;
13989;SDS011;7069;52.528;13.316;2023-04-25T00:24:11;2.57;;;2.27;;
13989;SDS011;7069;52.528;13.316;2023-04-25T00:26:38;5.77;;;2.17;;
13989;SDS011;7069;52.528;13.316;2023-04-25T00:29:06;5.20;;;2.53;;
13989;SDS011;7069;52.528;13.316;2023-04-25T00:31:32;4.43;;;2.53;;
13989;SDS011;7069;52.528;13.316;2023-04-25T00:33:59;3.63;;;2.40;;
13989;SDS011;7069;52.528;13.316;2023-04-25T00:36:26;3.50;;;2.27;;
13989;SDS011;7069;52.528;13.316;2023-04-25T00:38:52;3.23;;;2.23;;
13989;SDS011;7069;52.528;13.316;2023-04-25T00:41:19;2.67;;;2.03;;
13989;SDS011;7069;52.528;13.316;2023-04-25T00:43:46;4.43;;;2.50;;
13989;SDS011;7069;52.528;13.316;2023-04-25T00:46:15;4.17;;;2.20;;
13989;SDS011;7069;52.528;13.316;2023-04-25T00:48:41;3.10;;;2.50;;
13989;SDS011;7069;52.528;13.316;2023-04-25T00:51:08;4.17;;;2.50;;
13989;SDS011;7069;52.528;13.316;2023-04-25T00:53:37;5.33;;;2.33;;
13989;SDS011;7069;52.528;13.316;2023-04-25T00:56:03;3.17;;;2.87;;
13989;SDS011;7069;52.528;13.316;2023-04-25T00:58:31;4.77;;;2.70;;
13989;SDS011;7069;52.528;13.316;2023-04-25T01:00:57;5.67;;;3.03;;
13989;SDS011;7069;52.528;13.316;2023-04-25T01:03:26;7.43;;;3.10;;
13989;SDS011;7069;52.528;13.316;2023-04-25T01:05:53;3.83;;;2.90;;
13989;SDS011;7069;52.528;13.316;2023-04-25T01:08:20;2.73;;;2.20;;
13989;SDS011;7069;52.528;13.316;2023-04-25T01:10:47;5.00;;;2.73;;
13989;SDS011;7069;52.528;13.316;2023-04-25T01:13:14;6.40;;;2.43;;
13989;SDS011;7069;52.528;13.316;2023-04-25T01:15:40;7.53;;;2.37;;
13989;SDS011;7069;52.528;13.316;2023-04-25T01:18:07;4.10;;;2.80;;
13989;SDS011;7069;52.528;13.316;2023-04-25T01:20:35;3.83;;;2.80;;
13989;SDS011;7069;52.528;13.316;2023-04-25T01:23:05;3.00;;;2.13;;
13989;SDS011;7069;52.528;13.316;2023-04-25T01:25:31;8.60;;;2.93;;
13989;SDS011;7069;52.528;13.316;2023-04-25T01:27:58;4.23;;;2.67;;
13989;SDS011;7069;52.528;13.316;2023-04-25T01:30:26;3.00;;;2.40;;
13989;SDS011;7069;52.528;13.316;2023-04-25T01:32:53;3.60;;;2.60;;
13989;SDS011;7069;52.528;13.316;2023-04-25T01:35:20;7.70;;;3.43;;
13989;SDS011;7069;52.528;13.316;2023-04-25T01:37:50;5.90;;;3.47;;
13989;SDS011;7069;52.528;13.316;2023-04-25T01:40:18;4.97;;;2.80;;
13989;SDS011;7069;52.528;13.316;2023-04-25T01:42:47;6.50;;;3.77;;
13989;SDS011;7069;52.528;13.316;2023-04-25T01:45:13;4.77;;;2.90;;
13989;SDS011;7069;52.528;13.316;2023-04-25T01:47:40;6.50;;;2.87;;
13989;SDS011;7069;52.528;13.316;2023-04-25T01:50:09;4.23;;;3.53;;
13989;SDS011;7069;52.528;13.316;2023-04-25T01:52:36;5.97;;;2.90;;
13989;SDS011;7069;52.528;13.316;2023-04-25T01:55:02;3.50;;;3.10;;
13989;SDS011;7069;52.528;13.316;2023-04-25T01:57:31;3.90;;;2.97;;
13989;SDS011;7069;52.528;13.316;2023-04-25T01:59:59;4.47;;;3.23;;
13989;SDS011;7069;52.528;13.316;2023-04-25T02:02:26;8.07;;;3.70;;
13989;SDS011;7069;52.528;13.316;2023-04-25T02:04:52;6.73;;;3.00;;
13989;SDS011;7069;52.528;13.316;2023-04-25T02:07:19;3.87;;;3.07;;
13989;SDS011;7069;52.528;13.316;2023-04-25T02:09:46;6.30;;;4.27;;
13989;SDS011;7069;52.528;13.316;2023-04-25T02:12:12;5.07;;;3.40;;
13989;SDS011;7069;52.528;13.316;2023-04-25T02:14:40;6.70;;;3.70;;
13989;SDS011;7069;52.528;13.316;2023-04-25T02:17:07;5.13;;;3.00;;
13989;SDS011;7069;52.528;13.316;2023-04-25T02:19:34;6.40;;;3.77;;
13989;SDS011;7069;52.528;13.316;2023-04-25T02:22:00;4.17;;;3.00;;
13989;SDS011;7069;52.528;13.316;2023-04-25T02:24:27;8.37;;;3.97;;
13989;SDS011;7069;52.528;13.316;2023-04-25T02:26:54;4.33;;;3.77;;
13989;SDS011;7069;52.528;13.316;2023-04-25T02:29:21;7.53;;;4.67;;
13989;SDS011;7069;52.528;13.316;2023-04-25T02:31:49;9.03;;;3.57;;
13989;SDS011;7069;52.528;13.316;2023-04-25T02:34:16;6.93;;;3.53;;
13989;SDS011;7069;52.528;13.316;2023-04-25T02:36:42;7.50;;;4.30;;
13989;SDS011;7069;52.528;13.316;2023-04-25T02:39:09;5.53;;;3.60;;
13989;SDS011;7069;52.528;13.316;2023-04-25T02:41:36;7.00;;;3.60;;
13989;SDS011;7069;52.528;13.316;2023-04-25T02:44:03;8.40;;;3.10;;
13989;SDS011;7069;52.528;13.316;2023-04-25T02:46:29;7.60;;;3.30;;
13989;SDS011;7069;52.528;13.316;2023-04-25T02:48:57;4.37;;;2.90;;
13989;SDS011;7069;52.528;13.316;2023-04-25T02:51:24;7.37;;;3.87;;
13989;SDS011;7069;52.528;13.316;2023-04-25T02:53:51;6.77;;;4.10;;
13989;SDS011;7069;52.528;13.316;2023-04-25T02:56:17;5.93;;;3.83;;
13989;SDS011;7069;52.528;13.316;2023-04-25T02:58:44;6.97;;;3.67;;
13989;SDS011;7069;52.528;13.316;2023-04-25T03:01:11;6.23;;;3.70;;
13989;SDS011;7069;52.528;13.316;2023-04-25T03:03:37;5.63;;;3.67;;
13989;SDS011;7069;52.528;13.316;2023-04-25T03:06:05;4.00;;;3.60;;
13989;SDS011;7069;52.528;13.316;2023-04-25T03:08:32;7.07;;;3.67;;
13989;SDS011;7069;52.528;13.316;2023-04-25T03:10:59;4.70;;;3.30;;
13989;SDS011;7069;52.528;13.316;2023-04-25T03:13:26;8.60;;;4.70;;
13989;SDS011;7069;52.528;13.316;2023-04-25T03:15:54;4.17;;;3.73;;
13989;SDS011;7069;52.528;13.316;2023-04-25T03:18:21;5.00;;;3.03;;
13989;SDS011;7069;52.528;13.316;2023-04-25T03:20:47;6.63;;;3.67;;
13989;SDS011;7069;52.528;13.316;2023-04-25T03:23:16;7.03;;;4.07;;
13989;SDS011;7069;52.528;13.316;2023-04-25T03:25:42;9.27;;;3.63;;
13989;SDS011;7069;52.528;13.316;2023-04-25T03:28:09;9.17;;;4.00;;
13989;SDS011;7069;52.528;13.316;2023-04-25T03:30:35;4.13;;;3.70;;
13989;SDS011;7069;52.528;13.316;2023-04-25T03:33:02;10.03;;;4.57;;
13989;SDS011;7069;52.528;13.316;2023-04-25T03:35:28;9.07;;;3.90;;
13989;SDS011;7069;52.528;13.316;2023-04-25T03:37:55;5.33;;;3.93;;
13989;SDS011;7069;52.528;13.316;2023-04-25T03:40:23;6.50;;;3.80;;
13989;SDS011;7069;52.528;13.316;2023-04-25T03:42:50;6.10;;;3.87;;
13989;SDS011;7069;52.528;13.316;2023-04-25T03:45:16;5.67;;;3.80;;
13989;SDS011;7069;52.528;13.316;2023-04-25T03:47:43;4.47;;;3.63;;
13989;SDS011;7069;52.528;13.316;2023-04-25T03:50:09;8.23;;;4.20;;
13989;SDS011;7069;52.528;13.316;2023-04-25T03:52:36;5.30;;;4.27;;
13989;SDS011;7069;52.528;13.316;2023-04-25T03:55:03;7.40;;;4.17;;
13989;SDS011;7069;52.528;13.316;2023-04-25T03:57:31;9.63;;;3.83;;
13989;SDS011;7069;52.528;13.316;2023-04-25T03:59:58;7.77;;;3.97;;
13989;SDS011;7069;52.528;13.316;2023-04-25T04:02:25;7.53;;;4.00;;
13989;SDS011;7069;52.528;13.316;2023-04-25T04:04:52;4.70;;;3.70;;
13989;SDS011;7069;52.528;13.316;2023-04-25T04:07:18;4.47;;;3.40;;
13989;SDS011;7069;52.528;13.316;2023-04-25T04:09:45;4.37;;;3.70;;
13989;SDS011;7069;52.528;13.316;2023-04-25T04:12:11;6.60;;;3.97;;
13989;SDS011;7069;52.528;13.316;2023-04-25T04:14:39;8.53;;;3.87;;
13989;SDS011;7069;52.528;13.316;2023-04-25T04:17:06;6.10;;;4.00;;
13989;SDS011;7069;52.528;13.316;2023-04-25T04:19:33;8.50;;;4.17;;
13989;SDS011;7069;52.528;13.316;2023-04-25T04:21:59;4.57;;;3.63;;
13989;SDS011;7069;52.528;13.316;2023-04-25T04:24:26;4.27;;;3.77;;
13989;SDS011;7069;52.528;13.316;2023-04-25T04:26:53;4.33;;;3.93;;
13989;SDS011;7069;52.528;13.316;2023-04-25T04:29:20;3.87;;;3.17;;
13989;SDS011;7069;52.528;13.316;2023-04-25T04:31:48;7.07;;;3.70;;
13989;SDS011;7069;52.528;13.316;2023-04-25T04:34:15;5.97;;;3.47;;
13989;SDS011;7069;52.528;13.316;2023-04-25T04:36:43;6.37;;;3.70;;
13989;SDS011;7069;52.528;13.316;2023-04-25T04:39:10;4.60;;;3.40;;
13989;SDS011;7069;52.528;13.316;2023-04-25T04:41:36;6.30;;;3.60;;
13989;SDS011;7069;52.528;13.316;2023-04-25T04:44:03;4.43;;;3.57;;
13989;SDS011;7069;52.528;13.316;2023-04-25T04:46:31;4.50;;;3.03;;
13989;SDS011;7069;52.528;13.316;2023-04-25T04:49:04;3.57;;;3.17;;
13989;SDS011;7069;52.528;13.316;2023-04-25T04:51:30;4.77;;;3.60;;
13989;SDS011;7069;52.528;13.316;2023-04-25T04:53:58;7.40;;;3.63;;
13989;SDS011;7069;52.528;13.316;2023-04-25T04:56:27;7.83;;;3.63;;
13989;SDS011;7069;52.528;13.316;2023-04-25T04:58:54;5.47;;;3.50;;
13989;SDS011;7069;52.528;13.316;2023-04-25T05:01:21;4.50;;;3.40;;
13989;SDS011;7069;52.528;13.316;2023-04-25T05:03:48;9.43;;;3.53;;
13989;SDS011;7069;52.528;13.316;2023-04-25T05:06:17;5.97;;;3.87;;
13989;SDS011;7069;52.528;13.316;2023-04-25T05:08:44;5.40;;;3.63;;
13989;SDS011;7069;52.528;13.316;2023-04-25T05:11:11;8.57;;;3.43;;
13989;SDS011;7069;52.528;13.316;2023-04-25T05:13:37;7.03;;;3.50;;
13989;SDS011;7069;52.528;13.316;2023-04-25T05:16:04;7.37;;;3.63;;
13989;SDS011;7069;52.528;13.316;2023-04-25T05:18:30;6.57;;;3.60;;
13989;SDS011;7069;52.528;13.316;2023-04-25T05:20:57;6.00;;;3.97;;
13989;SDS011;7069;52.528;13.316;2023-04-25T05:23:25;7.00;;;3.93;;
13989;SDS011;7069;52.528;13.316;2023-04-25T05:25:53;6.20;;;3.97;;
13989;SDS011;7069;52.528;13.316;2023-04-25T05:28:19;5.63;;;3.70;;
13989;SDS011;7069;52.528;13.316;2023-04-25T05:30:46;6.30;;;3.90;;
13989;SDS011;7069;52.528;13.316;2023-04-25T05:33:13;5.53;;;3.67;;
13989;SDS011;7069;52.528;13.316;2023-04-25T05:35:39;5.80;;;4.07;;
13989;SDS011;7069;52.528;13.316;2023-04-25T05:38:06;8.37;;;3.43;;
13989;SDS011;7069;52.528;13.316;2023-04-25T05:40:34;4.80;;;3.67;;
13989;SDS011;7069;52.528;13.316;2023-04-25T05:43:01;8.00;;;3.80;;
13989;SDS011;7069;52.528;13.316;2023-04-25T05:45:28;7.00;;;4.37;;
13989;SDS011;7069;52.528;13.316;2023-04-25T05:47:55;5.47;;;4.27;;
13989;SDS011;7069;52.528;13.316;2023-04-25T05:50:21;5.67;;;4.27;;
13989;SDS011;7069;52.528;13.316;2023-04-25T05:52:48;9.00;;;4.17;;
13989;SDS011;7069;52.528;13.316;2023-04-25T05:55:14;7.87;;;4.23;;
13989;SDS011;7069;52.528;13.316;2023-04-25T05:57:42;6.53;;;4.63;;
13989;SDS011;7069;52.528;13.316;2023-04-25T06:00:11;6.83;;;4.30;;
13989;SDS011;7069;52.528;13.316;2023-04-25T06:02:38;6.23;;;4.10;;
13989;SDS011;7069;52.528;13.316;2023-04-25T06:05:05;5.53;;;4.40;;
13989;SDS011;7069;52.528;13.316;2023-04-25T06:07:31;9.47;;;4.87;;
13989;SDS011;7069;52.528;13.316;2023-04-25T06:09:58;7.27;;;4.37;;
13989;SDS011;7069;52.528;13.316;2023-04-25T06:12:26;9.43;;;4.23;;
13989;SDS011;7069;52.528;13.316;2023-04-25T06:14:54;6.93;;;4.50;;
13989;SDS011;7069;52.528;13.316;2023-04-25T06:17:20;9.13;;;5.57;;
13989;SDS011;7069;52.528;13.316;2023-04-25T06:19:47;6.13;;;5.53;;
13989;SDS011;7069;52.528;13.316;2023-04-25T06:22:13;6.40;;;4.50;;
13989;SDS011;7069;52.528;13.316;2023-04-25T06:24:40;8.57;;;4.67;;
13989;SDS011;7069;52.528;13.316;2023-04-25T06:27:07;6.60;;;4.43;;
13989;SDS011;7069;52.528;13.316;2023-04-25T06:29:33;9.10;;;4.90;;
13989;SDS011;7069;52.528;13.316;2023-04-25T06:32:01;8.23;;;4.93;;
13989;SDS011;7069;52.528;13.316;2023-04-25T06:34:28;11.77;;;7.30;;
13989;SDS011;7069;52.528;13.316;2023-04-25T06:36:55;8.20;;;4.47;;
13989;SDS011;7069;52.528;13.316;2023-04-25T06:39:21;11.60;;;5.17;;
13989;SDS011;7069;52.528;13.316;2023-04-25T06:41:48;7.13;;;4.30;;
13989;SDS011;7069;52.528;13.316;2023-04-25T06:44:15;8.50;;;4.87;;
13989;SDS011;7069;52.528;13.316;2023-04-25T06:46:41;7.23;;;4.80;;
13989;SDS011;7069;52.528;13.316;2023-04-25T06:49:09;8.57;;;5.07;;
13989;SDS011;7069;52.528;13.316;2023-04-25T06:51:36;6.87;;;5.53;;
13989;SDS011;7069;52.528;13.316;2023-04-25T06:54:02;7.67;;;4.70;;
13989;SDS011;7069;52.528;13.316;2023-04-25T06:56:30;9.27;;;5.20;;
13989;SDS011;7069;52.528;13.316;2023-04-25T06:58:57;6.87;;;4.23;;
13989;SDS011;7069;52.528;13.316;2023-04-25T07:01:25;7.37;;;5.10;;
13989;SDS011;7069;52.528;13.316;2023-04-25T07:03:52;9.60;;;5.80;;
13989;SDS011;7069;52.528;13.316;2023-04-25T07:06:20;8.40;;;4.67;;
13989;SDS011;7069;52.528;13.316;2023-04-25T07:08:46;6.47;;;4.30;;
13989;SDS011;7069;52.528;13.316;2023-04-25T07:11:13;5.70;;;4.13;;
13989;SDS011;7069;52.528;13.316;2023-04-25T07:13:39;7.63;;;4.37;;
13989;SDS011;7069;52.528;13.316;2023-04-25T07:16:06;9.53;;;4.50;;
13989;SDS011;7069;52.528;13.316;2023-04-25T07:18:32;7.47;;;4.77;;
13989;SDS011;7069;52.528;13.316;2023-04-25T07:20:59;8.20;;;4.63;;
13989;SDS011;7069;52.528;13.316;2023-04-25T07:23:27;5.53;;;4.17;;
13989;SDS011;7069;52.528;13.316;2023-04-25T07:25:53;13.43;;;4.57;;
13989;SDS011;7069;52.528;13.316;2023-04-25T07:28:20;8.60;;;4.50;;
13989;SDS011;7069;52.528;13.316;2023-04-25T07:30:47;5.23;;;3.50;;
13989;SDS011;7069;52.528;13.316;2023-04-25T07:33:13;7.57;;;4.33;;
13989;SDS011;7069;52.528;13.316;2023-04-25T07:35:40;6.50;;;4.17;;
13989;SDS011;7069;52.528;13.316;2023-04-25T07:38:06;10.77;;;4.10;;
13989;SDS011;7069;52.528;13.316;2023-04-25T07:40:34;5.70;;;4.27;;
13989;SDS011;7069;52.528;13.316;2023-04-25T07:43:01;8.60;;;4.23;;
13989;SDS011;7069;52.528;13.316;2023-04-25T07:45:27;9.83;;;4.17;;
13989;SDS011;7069;52.528;13.316;2023-04-25T07:47:54;10.23;;;3.43;;
13989;SDS011;7069;52.528;13.316;2023-04-25T07:50:21;7.20;;;3.57;;
13989;SDS011;7069;52.528;13.316;2023-04-25T07:52:47;9.20;;;3.77;;
13989;SDS011;7069;52.528;13.316;2023-04-25T07:55:14;8.83;;;3.90;;
13989;SDS011;7069;52.528;13.316;2023-04-25T07:57:42;7.93;;;3.80;;
13989;SDS011;7069;52.528;13.316;2023-04-25T08:00:09;8.23;;;3.47;;
13989;SDS011;7069;52.528;13.316;2023-04-25T08:02:36;8.63;;;3.23;;
13989;SDS011;7069;52.528;13.316;2023-04-25T08:05:03;10.37;;;4.10;;
13989;SDS011;7069;52.528;13.316;2023-04-25T08:07:31;10.47;;;3.97;;
13989;SDS011;7069;52.528;13.316;2023-04-25T08:09:58;6.67;;;2.70;;
13989;SDS011;7069;52.528;13.316;2023-04-25T08:12:24;13.43;;;4.30;;
13989;SDS011;7069;52.528;13.316;2023-04-25T08:14:52;6.83;;;3.83;;
13989;SDS011;7069;52.528;13.316;2023-04-25T08:17:19;12.90;;;4.70;;
13989;SDS011;7069;52.528;13.316;2023-04-25T08:19:45;14.77;;;4.30;;
13989;SDS011;7069;52.528;13.316;2023-04-25T08:22:12;8.77;;;3.27;;
13989;SDS011;7069;52.528;13.316;2023-04-25T08:24:39;8.47;;;3.83;;
13989;SDS011;7069;52.528;13.316;2023-04-25T08:27:06;10.57;;;3.23;;
13989;SDS011;7069;52.528;13.316;2023-04-25T08:29:33;11.13;;;4.13;;
13989;SDS011;7069;52.528;13.316;2023-04-25T08:32:01;10.77;;;3.73;;
13989;SDS011;7069;52.528;13.316;2023-04-25T08:34:27;10.83;;;3.30;;
13989;SDS011;7069;52.528;13.316;2023-04-25T08:36:54;8.83;;;3.70;;
13989;SDS011;7069;52.528;13.316;2023-04-25T08:39:20;8.17;;;4.30;;
13989;SDS011;7069;52.528;13.316;2023-04-25T08:41:47;10.70;;;3.50;;
13989;SDS011;7069;52.528;13.316;2023-04-25T08:44:13;10.27;;;3.77;;
13989;SDS011;7069;52.528;13.316;2023-04-25T08:46:40;8.00;;;3.17;;
13989;SDS011;7069;52.528;13.316;2023-04-25T08:49:08;17.77;;;2.97;;
13989;SDS011;7069;52.528;13.316;2023-04-25T08:51:36;11.40;;;3.40;;
13989;SDS011;7069;52.528;13.316;2023-04-25T08:54:08;10.47;;;4.17;;
13989;SDS011;7069;52.528;13.316;2023-04-25T08:56:35;16.13;;;8.60;;
13989;SDS011;7069;52.528;13.316;2023-04-25T08:59:02;10.13;;;3.40;;
13989;SDS011;7069;52.528;13.316;2023-04-25T09:01:28;6.60;;;2.80;;
13989;SDS011;7069;52.528;13.316;2023-04-25T09:03:55;8.10;;;3.13;;
13989;SDS011;7069;52.528;13.316;2023-04-25T09:06:24;5.93;;;3.17;;
13989;SDS011;7069;52.528;13.316;2023-04-25T09:08:51;11.30;;;3.27;;
13989;SDS011;7069;52.528;13.316;2023-04-25T09:11:18;7.47;;;2.93;;
13989;SDS011;7069;52.528;13.316;2023-04-25T09:13:44;5.87;;;2.60;;
13989;SDS011;7069;52.528;13.316;2023-04-25T09:16:11;7.37;;;2.40;;
13989;SDS011;7069;52.528;13.316;2023-04-25T09:18:39;6.27;;;3.27;;
13989;SDS011;7069;52.528;13.316;2023-04-25T09:21:06;9.20;;;2.70;;
13989;SDS011;7069;52.528;13.316;2023-04-25T09:23:39;9.40;;;3.37;;
13989;SDS011;7069;52.528;13.316;2023-04-25T09:26:06;11.17;;;3.17;;
13989;SDS011;7069;52.528;13.316;2023-04-25T09:28:33;9.23;;;2.92;;
13989;SDS011;7069;52.528;13.316;2023-04-25T09:31:00;8.40;;;2.70;;
13989;SDS011;7069;52.528;13.316;2023-04-25T09:33:28;5.68;;;2.25;;
13989;SDS011;7069;52.528;13.316;2023-04-25T09:36:00;2.50;;;1.70;;
13989;SDS011;7069;52.528;13.316;2023-04-25T09:38:27;3.70;;;1.90;;
13989;SDS011;7069;52.528;13.316;2023-04-25T09:40:57;7.33;;;2.43;;
13989;SDS011;7069;52.528;13.316;2023-04-25T09:43:26;8.13;;;2.80;;
13989;SDS011;7069;52.528;13.316;2023-04-25T09:45:53;6.83;;;3.33;;
13989;SDS011;7069;52.528;13.316;2023-04-25T09:48:22;9.47;;;2.67;;
13989;SDS011;7069;52.528;13.316;2023-04-25T09:50:59;8.37;;;2.63;;
13989;SDS011;7069;52.528;13.316;2023-04-25T09:53:29;6.90;;;2.60;;
13989;SDS011;7069;52.528;13.316;2023-04-25T09:55:58;7.60;;;2.17;;
13989;SDS011;7069;52.528;13.316;2023-04-25T09:58:25;5.10;;;2.53;;
13989;SDS011;7069;52.528;13.316;2023-04-25T10:00:55;9.50;;;2.50;;
13989;SDS011;7069;52.528;13.316;2023-04-25T10:03:25;6.53;;;2.83;;
13989;SDS011;7069;52.528;13.316;2023-04-25T10:05:51;10.00;;;3.43;;
13989;SDS011;7069;52.528;13.316;2023-04-25T10:08:19;7.00;;;2.73;;
13989;SDS011;7069;52.528;13.316;2023-04-25T10:10:46;4.67;;;2.53;;
13989;SDS011;7069;52.528;13.316;2023-04-25T10:13:14;5.93;;;2.50;;
13989;SDS011;7069;52.528;13.316;2023-04-25T10:15:41;12.27;;;2.55;;
13989;SDS011;7069;52.528;13.316;2023-04-25T10:18:08;4.78;;;1.88;;
13989;SDS011;7069;52.528;13.316;2023-04-25T10:20:34;4.50;;;2.22;;
13989;SDS011;7069;52.528;13.316;2023-04-25T10:23:03;5.63;;;2.85;;
13989;SDS011;7069;52.528;13.316;2023-04-25T10:25:33;11.25;;;2.60;;
13989;SDS011;7069;52.528;13.316;2023-04-25T10:27:59;6.70;;;2.80;;
13989;SDS011;7069;52.528;13.316;2023-04-25T10:30:28;7.18;;;2.13;;
13989;SDS011;7069;52.528;13.316;2023-04-25T10:32:55;5.37;;;2.30;;
13989;SDS011;7069;52.528;13.316;2023-04-25T10:35:24;10.43;;;2.80;;
13989;SDS011;7069;52.528;13.316;2023-04-25T10:38:00;5.70;;;2.00;;
13989;SDS011;7069;52.528;13.316;2023-04-25T10:40:28;11.43;;;3.13;;
13989;SDS011;7069;52.528;13.316;2023-04-25T10:42:55;9.07;;;2.77;;
13989;SDS011;7069;52.528;13.316;2023-04-25T10:45:22;10.13;;;2.40;;
13989;SDS011;7069;52.528;13.316;2023-04-25T10:47:50;3.00;;;2.03;;
13989;SDS011;7069;52.528;13.316;2023-04-25T10:50:16;5.07;;;2.23;;
13989;SDS011;7069;52.528;13.316;2023-04-25T10:52:43;3.60;;;1.80;;
13989;SDS011;7069;52.528;13.316;2023-04-25T10:55:10;6.38;;;2.72;;
13989;SDS011;7069;52.528;13.316;2023-04-25T10:57:37;7.50;;;2.70;;
13989;SDS011;7069;52.528;13.316;2023-04-25T11:00:05;6.15;;;2.00;;
13989;SDS011;7069;52.528;13.316;2023-04-25T11:02:36;3.53;;;1.88;;
13989;SDS011;7069;52.528;13.316;2023-04-25T11:05:05;3.75;;;1.30;;
13989;SDS011;7069;52.528;13.316;2023-04-25T11:07:34;5.53;;;2.50;;
13989;SDS011;7069;52.528;13.316;2023-04-25T11:10:02;4.40;;;2.00;;
13989;SDS011;7069;52.528;13.316;2023-04-25T11:12:29;3.47;;;2.07;;
13989;SDS011;7069;52.528;13.316;2023-04-25T11:15:00;9.47;;;2.73;;
13989;SDS011;7069;52.528;13.316;2023-04-25T11:17:26;14.10;;;2.60;;
13989;SDS011;7069;52.528;13.316;2023-04-25T11:19:53;4.43;;;2.30;;
13989;SDS011;7069;52.528;13.316;2023-04-25T11:22:22;2.90;;;1.87;;
13989;SDS011;7069;52.528;13.316;2023-04-25T11:24:49;6.00;;;1.97;;
13989;SDS011;7069;52.528;13.316;2023-04-25T11:27:15;6.43;;;2.47;;
13989;SDS011;7069;52.528;13.316;2023-04-25T11:29:42;8.87;;;1.87;;
13989;SDS011;7069;52.528;13.316;2023-04-25T11:32:08;3.80;;;2.03;;
13989;SDS011;7069;52.528;13.316;2023-04-25T11:34:35;4.00;;;1.93;;
13989;SDS011;7069;52.528;13.316;2023-04-25T11:37:02;6.30;;;2.13;;
13989;SDS011;7069;52.528;13.316;2023-04-25T11:39:30;4.97;;;1.70;;
13989;SDS011;7069;52.528;13.316;2023-04-25T11:41:57;7.97;;;2.80;;
13989;SDS011;7069;52.528;13.316;2023-04-25T11:44:23;7.60;;;2.13;;
13989;SDS011;7069;52.528;13.316;2023-04-25T11:46:50;8.10;;;2.67;;
13989;SDS011;7069;52.528;13.316;2023-04-25T11:49:17;5.00;;;2.20;;
13989;SDS011;7069;52.528;13.316;2023-04-25T11:51:44;5.43;;;2.40;;
13989;SDS011;7069;52.528;13.316;2023-04-25T11:54:11;4.17;;;1.73;;
13989;SDS011;7069;52.528;13.316;2023-04-25T11:56:41;5.10;;;2.33;;
13989;SDS011;7069;52.528;13.316;2023-04-25T11:59:08;5.13;;;2.07;;
13989;SDS011;7069;52.528;13.316;2023-04-25T12:01:35;5.27;;;2.27;;
13989;SDS011;7069;52.528;13.316;2023-04-25T12:04:12;5.20;;;2.70;;
13989;SDS011;7069;52.528;13.316;2023-04-25T12:06:38;6.70;;;2.43;;
13989;SDS011;7069;52.528;13.316;2023-04-25T12:09:07;5.97;;;2.20;;
13989;SDS011;7069;52.528;13.316;2023-04-25T12:11:40;7.30;;;2.20;;
13989;SDS011;7069;52.528;13.316;2023-04-25T12:14:08;8.50;;;2.93;;
13989;SDS011;7069;52.528;13.316;2023-04-25T12:16:41;6.33;;;2.47;;
13989;SDS011;7069;52.528;13.316;2023-04-25T12:19:08;4.23;;;1.80;;
13989;SDS011;7069;52.528;13.316;2023-04-25T12:21:34;7.30;;;2.53;;
13989;SDS011;7069;52.528;13.316;2023-04-25T12:24:11;3.67;;;1.97;;
13989;SDS011;7069;52.528;13.316;2023-04-25T12:26:48;3.43;;;2.20;;
13989;SDS011;7069;52.528;13.316;2023-04-25T12:29:17;5.37;;;1.97;;
13989;SDS011;7069;52.528;13.316;2023-04-25T12:31:43;6.10;;;2.97;;
13989;SDS011;7069;52.528;13.316;2023-04-25T12:34:11;4.47;;;2.27;;
13989;SDS011;7069;52.528;13.316;2023-04-25T12:36:38;8.20;;;2.60;;
13989;SDS011;7069;52.528;13.316;2023-04-25T12:39:04;5.80;;;2.07;;
13989;SDS011;7069;52.528;13.316;2023-04-25T12:41:31;7.13;;;2.30;;
13989;SDS011;7069;52.528;13.316;2023-04-25T12:43:58;4.70;;;2.10;;
13989;SDS011;7069;52.528;13.316;2023-04-25T12:46:26;4.97;;;2.83;;
13989;SDS011;7069;52.528;13.316;2023-04-25T12:48:52;2.13;;;1.60;;
13989;SDS011;7069;52.528;13.316;2023-04-25T12:51:20;5.13;;;2.37;;
13989;SDS011;7069;52.528;13.316;2023-04-25T12:53:50;5.67;;;2.47;;
13989;SDS011;7069;52.528;13.316;2023-04-25T12:56:16;3.33;;;1.43;;
13989;SDS011;7069;52.528;13.316;2023-04-25T12:58:43;6.00;;;1.80;;
13989;SDS011;7069;52.528;13.316;2023-04-25T13:01:10;2.83;;;2.20;;
13989;SDS011;7069;52.528;13.316;2023-04-25T13:03:38;5.40;;;1.90;;
13989;SDS011;7069;52.528;13.316;2023-04-25T13:06:05;3.00;;;2.13;;
13989;SDS011;7069;52.528;13.316;2023-04-25T13:08:32;6.40;;;2.43;;
13989;SDS011;7069;52.528;13.316;2023-04-25T13:10:58;3.70;;;1.60;;
13989;SDS011;7069;52.528;13.316;2023-04-25T13:13:25;2.70;;;1.50;;
13989;SDS011;7069;52.528;13.316;2023-04-25T13:15:52;3.50;;;1.40;;
13989;SDS011;7069;52.528;13.316;2023-04-25T13:18:18;5.93;;;1.70;;
13989;SDS011;7069;52.528;13.316;2023-04-25T13:20:47;4.10;;;2.67;;
13989;SDS011;7069;52.528;13.316;2023-04-25T13:23:13;4.47;;;1.73;;
13989;SDS011;7069;52.528;13.316;2023-04-25T13:25:40;7.33;;;1.60;;
13989;SDS011;7069;52.528;13.316;2023-04-25T13:28:06;3.17;;;1.40;;
13989;SDS011;7069;52.528;13.316;2023-04-25T13:30:33;2.90;;;1.37;;
13989;SDS011;7069;52.528;13.316;2023-04-25T13:33:00;3.57;;;2.03;;
13989;SDS011;7069;52.528;13.316;2023-04-25T13:35:28;2.73;;;1.63;;
13989;SDS011;7069;52.528;13.316;2023-04-25T13:37:57;5.77;;;1.70;;
13989;SDS011;7069;52.528;13.316;2023-04-25T13:40:23;5.93;;;1.57;;
13989;SDS011;7069;52.528;13.316;2023-04-25T13:42:50;2.92;;;1.63;;
13989;SDS011;7069;52.528;13.316;2023-04-25T13:45:17;7.87;;;2.83;;
13989;SDS011;7069;52.528;13.316;2023-04-25T13:47:44;10.20;;;1.97;;
13989;SDS011;7069;52.528;13.316;2023-04-25T13:50:10;3.08;;;2.03;;
13989;SDS011;7069;52.528;13.316;2023-04-25T13:52:38;6.53;;;2.22;;
13989;SDS011;7069;52.528;13.316;2023-04-25T13:55:06;6.80;;;2.20;;
13989;SDS011;7069;52.528;13.316;2023-04-25T13:57:33;5.82;;;2.03;;
13989;SDS011;7069;52.528;13.316;2023-04-25T14:00:00;5.88;;;1.52;;
13989;SDS011;7069;52.528;13.316;2023-04-25T14:02:30;5.90;;;2.28;;
13989;SDS011;7069;52.528;13.316;2023-04-25T14:04:56;4.80;;;1.73;;
13989;SDS011;7069;52.528;13.316;2023-04-25T14:07:22;3.90;;;2.30;;
13989;SDS011;7069;52.528;13.316;2023-04-25T14:09:49;4.73;;;2.07;;
13989;SDS011;7069;52.528;13.316;2023-04-25T14:12:17;5.93;;;2.00;;
13989;SDS011;7069;52.528;13.316;2023-04-25T14:14:43;1.87;;;1.23;;
13989;SDS011;7069;52.528;13.316;2023-04-25T14:17:10;4.77;;;1.70;;
13989;SDS011;7069;52.528;13.316;2023-04-25T14:19:36;2.87;;;1.87;;
13989;SDS011;7069;52.528;13.316;2023-04-25T14:22:08;3.07;;;1.30;;
13989;SDS011;7069;52.528;13.316;2023-04-25T14:24:34;2.20;;;1.73;;
13989;SDS011;7069;52.528;13.316;2023-04-25T14:27:01;2.53;;;1.47;;
13989;SDS011;7069;52.528;13.316;2023-04-25T14:29:29;2.67;;;1.57;;
13989;SDS011;7069;52.528;13.316;2023-04-25T14:31:56;4.60;;;1.60;;
13989;SDS011;7069;52.528;13.316;2023-04-25T14:34:23;2.60;;;1.33;;
13989;SDS011;7069;52.528;13.316;2023-04-25T14:36:51;1.90;;;1.37;;
13989;SDS011;7069;52.528;13.316;2023-04-25T14:39:17;4.43;;;1.93;;
13989;SDS011;7069;52.528;13.316;2023-04-25T14:41:44;5.73;;;1.33;;
13989;SDS011;7069;52.528;13.316;2023-04-25T14:44:11;3.53;;;2.03;;
13989;SDS011;7069;52.528;13.316;2023-04-25T14:46:39;5.50;;;2.60;;